Terminal Aerodrome Forecast
Issued by NWS

Home | Current Version | Previous Version | Graphics & Text | Print | Product List | Glossary On
Versions: 1 2 3 4 5 6 7 8 9 10 11 12 13 14
957
FTUS41 KCLE 062335
TAFFDY
TAF
KFDY 062335Z 0700/0724 29008KT 3SM BR OVC005
     FM070200 27012G20KT 6SM BR OVC010
      TEMPO 0702/0703 BKN005
     FM070400 27012G22KT P6SM OVC025
     FM070600 27010G18KT P6SM BKN035
     FM071200 25012KT P6SM SCT035 BKN150=

USA.gov is the U.S. government's official web portal to all federal, state and local government web resources and services.